createdAt,value
2023-10-31T00:00:37.324Z,12.50
2023-10-31T00:03:04.293Z,11.60
2023-10-31T00:05:31.209Z,12.10
2023-10-31T00:07:57.916Z,12.00
2023-10-31T00:10:24.629Z,11.30
2023-10-31T00:12:51.432Z,12.00
2023-10-31T00:15:18.303Z,12.40
2023-10-31T00:17:45.150Z,10.30
2023-10-31T00:20:11.906Z,10.30
2023-10-31T00:22:38.597Z,10.30
2023-10-31T00:25:05.728Z,10.60
2023-10-31T00:27:32.544Z,10.20
2023-10-31T00:29:59.373Z,11.50
2023-10-31T00:32:26.958Z,10.30
2023-10-31T00:34:53.799Z,10.20
2023-10-31T00:37:20.478Z,10.90
2023-10-31T00:39:47.171Z,11.80
2023-10-31T00:42:13.990Z,11.10
2023-10-31T00:44:40.792Z,10.10
2023-10-31T00:47:07.559Z,10.10
2023-10-31T00:49:34.289Z,10.70
2023-10-31T00:52:00.935Z,10.20
2023-10-31T00:54:27.767Z,10.00
2023-10-31T00:56:54.553Z,9.90
2023-10-31T00:59:21.252Z,11.10
2023-10-31T01:01:47.978Z,11.40
2023-10-31T01:04:14.905Z,9.70
2023-10-31T01:06:44.994Z,9.70
2023-10-31T01:09:12.835Z,11.10
2023-10-31T01:11:39.708Z,9.50
2023-10-31T01:14:06.453Z,10.30
2023-10-31T01:16:33.339Z,10.70
2023-10-31T01:19:00.244Z,10.90
2023-10-31T01:21:26.978Z,10.60
2023-10-31T01:23:53.695Z,10.70
2023-10-31T01:26:20.585Z,10.50
2023-10-31T01:28:47.555Z,9.20
2023-10-31T01:31:14.345Z,9.20
2023-10-31T01:33:41.165Z,11.10
2023-10-31T01:36:08.298Z,9.30
2023-10-31T01:38:34.934Z,9.40
2023-10-31T01:41:01.666Z,11.60
2023-10-31T01:43:32.600Z,9.50
2023-10-31T01:45:59.709Z,9.60
2023-10-31T01:48:28.745Z,11.50
2023-10-31T01:50:55.833Z,10.10
2023-10-31T01:53:23.418Z,10.70
2023-10-31T01:55:50.482Z,10.80
2023-10-31T01:58:17.795Z,9.80
2023-10-31T02:00:44.666Z,11.20
2023-10-31T02:03:11.435Z,10.90
2023-10-31T02:05:38.214Z,12.00
2023-10-31T02:08:06.526Z,9.90
2023-10-31T02:10:33.343Z,9.80
2023-10-31T02:12:59.981Z,10.20
2023-10-31T02:15:26.817Z,12.00
2023-10-31T02:17:53.522Z,9.80
2023-10-31T02:20:20.155Z,9.80
2023-10-31T02:22:46.868Z,11.30
2023-10-31T02:25:17.022Z,11.30
2023-10-31T02:27:43.714Z,9.70
2023-10-31T02:30:10.884Z,11.30
2023-10-31T02:32:37.672Z,9.60
2023-10-31T02:35:04.608Z,11.60
2023-10-31T02:37:31.487Z,9.70
2023-10-31T02:39:58.258Z,11.90
2023-10-31T02:42:25.290Z,9.70
2023-10-31T02:44:52.132Z,11.40
2023-10-31T02:47:18.903Z,11.40
2023-10-31T02:49:45.792Z,11.30
2023-10-31T02:52:12.515Z,11.50
2023-10-31T02:54:39.316Z,9.70
2023-10-31T02:57:06.026Z,10.80
2023-10-31T02:59:32.675Z,11.10
2023-10-31T03:01:59.347Z,9.60
2023-10-31T03:04:26.187Z,9.60
2023-10-31T03:06:52.984Z,11.50
2023-10-31T03:09:19.809Z,11.40
2023-10-31T03:11:46.487Z,9.50
2023-10-31T03:14:13.269Z,11.00
2023-10-31T03:16:40.471Z,9.60
2023-10-31T03:19:07.848Z,10.90
2023-10-31T03:21:34.844Z,10.80
2023-10-31T03:24:01.968Z,7.90
2023-10-31T03:26:28.681Z,9.50
2023-10-31T03:28:58.434Z,9.40
2023-10-31T03:31:25.520Z,10.60
2023-10-31T03:33:52.830Z,10.90
2023-10-31T03:36:19.610Z,10.70
2023-10-31T03:38:46.365Z,9.40
2023-10-31T03:41:14.396Z,11.10
2023-10-31T03:43:41.186Z,11.10
2023-10-31T03:46:07.929Z,11.40
2023-10-31T03:48:34.622Z,10.10
2023-10-31T03:51:01.490Z,10.30
2023-10-31T03:53:28.311Z,9.20
2023-10-31T03:55:55.054Z,10.60
2023-10-31T03:58:21.742Z,9.20
2023-10-31T04:00:48.471Z,10.40
2023-10-31T04:03:15.437Z,9.10
2023-10-31T04:05:42.171Z,11.00
2023-10-31T04:08:09.232Z,10.20
2023-10-31T04:10:35.942Z,10.20
2023-10-31T04:13:02.609Z,8.90
2023-10-31T04:15:29.343Z,8.90
2023-10-31T04:17:56.135Z,8.70
2023-10-31T04:20:22.959Z,10.60
2023-10-31T04:22:49.833Z,8.80
2023-10-31T04:25:16.608Z,8.70
2023-10-31T04:27:43.456Z,8.80
2023-10-31T04:30:12.927Z,9.90
2023-10-31T04:32:41.306Z,8.60
2023-10-31T04:35:08.400Z,8.70
2023-10-31T04:37:35.484Z,8.70
2023-10-31T04:40:02.866Z,9.80
2023-10-31T04:42:29.926Z,9.30
2023-10-31T04:44:56.795Z,8.70
2023-10-31T04:47:23.629Z,8.60
2023-10-31T04:49:50.490Z,9.80
2023-10-31T04:52:18.122Z,9.40
2023-10-31T04:54:44.793Z,8.60
2023-10-31T04:57:12.323Z,8.50
2023-10-31T04:59:39.048Z,10.20
2023-10-31T05:02:08.318Z,8.90
2023-10-31T05:04:35.381Z,8.50
2023-10-31T05:07:02.145Z,8.50
2023-10-31T05:09:28.904Z,8.40
2023-10-31T05:11:56.273Z,8.40
2023-10-31T05:14:23.433Z,8.80
2023-10-31T05:16:50.278Z,9.10
2023-10-31T05:19:17.135Z,10.00
2023-10-31T05:21:43.827Z,9.80
2023-10-31T05:24:33.416Z,7.30
2023-10-31T05:27:00.158Z,8.30
2023-10-31T05:29:26.986Z,9.40
2023-10-31T05:31:53.734Z,8.30
2023-10-31T05:34:20.477Z,9.80
2023-10-31T05:36:47.240Z,10.00
2023-10-31T05:39:13.864Z,8.30
2023-10-31T05:41:40.626Z,9.50
2023-10-31T05:44:07.691Z,10.00
2023-10-31T05:46:39.487Z,9.20
2023-10-31T05:49:08.818Z,8.30
2023-10-31T05:51:36.871Z,8.40
2023-10-31T05:54:03.724Z,9.60
2023-10-31T05:56:30.399Z,8.30
2023-10-31T05:58:57.154Z,8.30
2023-10-31T06:01:23.985Z,8.30
2023-10-31T06:03:50.828Z,8.40
2023-10-31T06:06:19.959Z,9.60
2023-10-31T06:08:46.720Z,8.50
2023-10-31T06:11:14.262Z,9.00
2023-10-31T06:13:41.211Z,9.30
2023-10-31T06:16:09.092Z,8.40
2023-10-31T06:18:36.256Z,8.50
2023-10-31T06:21:02.993Z,8.50
2023-10-31T06:23:32.217Z,8.50
2023-10-31T06:25:59.599Z,8.50
2023-10-31T06:28:26.280Z,8.40
2023-10-31T06:30:53.091Z,8.40
2023-10-31T06:33:19.847Z,8.40
2023-10-31T06:35:46.898Z,8.50
2023-10-31T06:38:14.481Z,8.60
2023-10-31T06:40:41.207Z,8.70
2023-10-31T06:43:07.936Z,8.70
2023-10-31T06:45:34.794Z,8.70
2023-10-31T06:48:01.577Z,8.80
2023-10-31T06:50:28.322Z,8.90
2023-10-31T06:52:55.237Z,8.90
2023-10-31T06:55:21.923Z,8.80
2023-10-31T06:57:48.578Z,8.80
2023-10-31T07:00:15.849Z,8.80
2023-10-31T07:02:42.860Z,8.80
2023-10-31T07:05:09.959Z,8.80
2023-10-31T07:07:37.182Z,8.80
2023-10-31T07:10:04.029Z,9.00
2023-10-31T07:12:31.076Z,8.80
2023-10-31T07:14:59.938Z,8.90
2023-10-31T07:17:27.399Z,8.90
2023-10-31T07:19:54.224Z,9.00
2023-10-31T07:22:20.870Z,9.10
2023-10-31T07:24:47.510Z,9.10
2023-10-31T07:27:14.136Z,9.10
2023-10-31T07:29:41.748Z,9.10
2023-10-31T07:32:11.764Z,9.10
2023-10-31T07:34:41.735Z,9.20
2023-10-31T07:37:08.408Z,9.20
2023-10-31T07:39:35.164Z,9.20
2023-10-31T07:42:02.423Z,9.30
2023-10-31T07:44:29.565Z,9.40
2023-10-31T07:46:56.368Z,9.40
2023-10-31T07:49:23.120Z,9.40
2023-10-31T07:51:49.894Z,9.50
2023-10-31T07:54:17.458Z,9.60
2023-10-31T07:56:44.277Z,10.50
2023-10-31T07:59:11.064Z,9.70
2023-10-31T08:01:38.110Z,9.70
2023-10-31T08:04:05.179Z,9.80
2023-10-31T08:06:32.109Z,9.80
2023-10-31T08:08:58.799Z,9.80
2023-10-31T08:11:25.520Z,9.90
2023-10-31T08:13:53.044Z,9.90
2023-10-31T08:16:20.623Z,9.90
2023-10-31T08:18:47.541Z,9.90
2023-10-31T08:21:14.263Z,9.90
2023-10-31T08:26:08.974Z,10.00
2023-10-31T08:28:35.859Z,10.80
2023-10-31T08:31:19.239Z,10.20
2023-10-31T08:33:46.259Z,10.00
2023-10-31T08:36:12.953Z,10.20
2023-10-31T08:38:39.778Z,11.30
2023-10-31T08:41:06.680Z,11.90
2023-10-31T08:43:33.560Z,10.60
2023-10-31T08:46:00.423Z,11.00
2023-10-31T08:48:27.442Z,10.30
2023-10-31T08:50:54.162Z,11.50
2023-10-31T08:53:20.859Z,10.40
2023-10-31T08:55:47.709Z,11.50
2023-10-31T08:58:15.085Z,10.30
2023-10-31T09:00:42.609Z,11.90
2023-10-31T09:03:10.525Z,10.40
2023-10-31T09:05:37.490Z,10.80
2023-10-31T09:08:04.410Z,10.40
2023-10-31T09:10:31.203Z,10.30
2023-10-31T09:12:58.274Z,10.30
2023-10-31T09:15:25.442Z,11.90
2023-10-31T09:17:52.309Z,10.50
2023-10-31T09:20:19.250Z,10.50
2023-10-31T09:22:46.114Z,10.90
2023-10-31T09:25:12.910Z,10.80
2023-10-31T09:27:42.941Z,10.80
2023-10-31T09:30:09.909Z,12.60
2023-10-31T09:32:36.910Z,11.00
2023-10-31T09:35:04.026Z,12.40
2023-10-31T09:37:31.005Z,11.40
2023-10-31T09:39:57.810Z,12.80
2023-10-31T09:42:24.693Z,12.60
2023-10-31T09:44:54.113Z,11.40
2023-10-31T09:47:21.593Z,11.60
2023-10-31T09:49:48.601Z,12.30
2023-10-31T09:52:15.449Z,11.30
2023-10-31T09:54:43.330Z,12.00
2023-10-31T09:57:10.820Z,12.20
2023-10-31T09:59:37.885Z,11.30
2023-10-31T10:02:04.781Z,11.40
2023-10-31T10:04:31.803Z,11.40
2023-10-31T10:07:02.628Z,11.40
2023-10-31T10:09:29.964Z,11.40
2023-10-31T10:11:57.131Z,11.40
2023-10-31T10:14:24.958Z,11.40
2023-10-31T10:16:51.723Z,11.50
2023-10-31T10:19:20.647Z,13.10
2023-10-31T10:21:51.253Z,11.50
2023-10-31T10:24:18.729Z,11.50
2023-10-31T10:26:45.567Z,13.10
2023-10-31T10:29:12.206Z,11.60
2023-10-31T10:31:38.919Z,12.90
2023-10-31T10:34:06.347Z,11.90
2023-10-31T10:36:36.445Z,11.80
2023-10-31T10:39:05.389Z,12.70
2023-10-31T10:41:36.358Z,11.90
2023-10-31T10:44:03.355Z,12.80
2023-10-31T10:46:34.179Z,11.80
2023-10-31T10:49:04.053Z,12.00
2023-10-31T10:51:38.802Z,11.80
2023-10-31T10:54:10.873Z,11.90
2023-10-31T10:56:43.415Z,11.90
2023-10-31T10:59:16.699Z,11.90
2023-10-31T11:01:58.358Z,12.60
2023-10-31T11:04:25.846Z,12.00
2023-10-31T11:06:52.727Z,13.80
2023-10-31T11:09:19.864Z,12.20
2023-10-31T11:11:50.231Z,12.30
2023-10-31T11:14:18.281Z,12.30
2023-10-31T11:16:55.222Z,12.30
2023-10-31T11:19:23.760Z,12.30
2023-10-31T11:21:54.365Z,12.40
2023-10-31T11:24:27.072Z,12.40
2023-10-31T11:26:54.813Z,12.40
2023-10-31T11:29:21.575Z,12.40
2023-10-31T11:31:48.333Z,13.20
2023-10-31T11:34:17.200Z,12.40
2023-10-31T11:36:43.957Z,12.90
2023-10-31T11:39:11.403Z,12.60
2023-10-31T11:41:38.925Z,13.10
2023-10-31T11:44:05.766Z,13.20
2023-10-31T11:46:32.508Z,12.50
2023-10-31T11:49:00.986Z,12.60
2023-10-31T11:51:28.029Z,12.70
2023-10-31T11:53:54.762Z,13.60
2023-10-31T11:56:22.414Z,12.70
2023-10-31T11:59:15.684Z,14.10
2023-10-31T12:01:48.881Z,12.70
2023-10-31T12:04:22.565Z,12.70
2023-10-31T12:06:57.668Z,12.70
2023-10-31T12:09:24.553Z,13.10
2023-10-31T12:11:51.455Z,12.70
2023-10-31T12:14:24.073Z,12.70
2023-10-31T12:16:50.746Z,12.90
2023-10-31T12:19:17.764Z,12.90
2023-10-31T12:21:47.999Z,12.90
2023-10-31T12:24:15.466Z,12.90
2023-10-31T12:26:42.514Z,12.80
2023-10-31T12:29:09.562Z,13.60
2023-10-31T12:31:36.554Z,12.60
2023-10-31T12:34:06.890Z,13.30
2023-10-31T12:36:34.318Z,12.50
2023-10-31T12:39:01.425Z,12.60
2023-10-31T12:41:28.526Z,12.60
2023-10-31T12:43:55.625Z,13.00
2023-10-31T12:46:40.954Z,13.40
2023-10-31T12:49:17.825Z,11.50
2023-10-31T12:52:04.901Z,12.60
2023-10-31T12:54:35.816Z,12.50
2023-10-31T12:57:03.043Z,12.50
2023-10-31T12:59:30.034Z,12.50
2023-10-31T13:01:57.244Z,13.00
2023-10-31T13:04:31.184Z,12.50
2023-10-31T13:07:01.001Z,12.50
2023-10-31T13:09:34.595Z,12.50
2023-10-31T13:12:02.034Z,12.50
2023-10-31T13:14:28.872Z,13.90
2023-10-31T13:16:55.674Z,12.70
2023-10-31T13:19:22.397Z,13.20
2023-10-31T13:21:49.598Z,12.80
2023-10-31T13:24:16.789Z,12.80
2023-10-31T13:26:45.246Z,13.80
2023-10-31T13:29:12.731Z,13.20
2023-10-31T13:31:39.431Z,13.00
2023-10-31T13:34:07.132Z,13.00
2023-10-31T13:36:33.833Z,13.40
2023-10-31T13:39:00.480Z,14.30
2023-10-31T13:41:28.682Z,13.50
2023-10-31T13:43:55.413Z,13.70
2023-10-31T13:46:22.129Z,14.10
2023-10-31T13:48:48.869Z,13.20
2023-10-31T13:51:15.596Z,13.00
2023-10-31T13:53:42.272Z,13.00
2023-10-31T13:56:08.953Z,13.00
2023-10-31T13:58:35.594Z,13.00
2023-10-31T14:01:02.377Z,13.90
2023-10-31T14:03:29.269Z,12.90
2023-10-31T14:05:56.593Z,13.00
2023-10-31T14:08:23.281Z,14.00
2023-10-31T14:10:49.980Z,12.90
2023-10-31T14:13:17.901Z,12.80
2023-10-31T14:15:44.834Z,13.80
2023-10-31T14:18:11.826Z,12.70
2023-10-31T14:20:40.841Z,12.60
2023-10-31T14:23:07.481Z,12.90
2023-10-31T14:25:34.247Z,13.70
2023-10-31T14:28:01.473Z,12.50
2023-10-31T14:30:28.087Z,12.40
2023-10-31T14:32:54.962Z,12.40
2023-10-31T14:35:21.880Z,13.10
2023-10-31T14:37:48.896Z,12.90
2023-10-31T14:40:15.614Z,13.10
2023-10-31T14:42:42.326Z,12.30
2023-10-31T14:45:09.425Z,12.30
2023-10-31T14:47:36.142Z,12.20
2023-10-31T14:50:03.243Z,12.20
2023-10-31T14:52:30.054Z,12.20
2023-10-31T14:54:56.755Z,12.90
2023-10-31T14:57:23.617Z,12.20
2023-10-31T14:59:50.330Z,12.10
2023-10-31T15:02:17.317Z,12.80
2023-10-31T15:04:43.993Z,12.00
2023-10-31T15:07:10.616Z,11.90
2023-10-31T15:09:37.226Z,12.20
2023-10-31T15:12:03.875Z,11.80
2023-10-31T15:14:30.704Z,11.70
2023-10-31T15:16:57.441Z,11.70
2023-10-31T15:19:24.147Z,11.70
2023-10-31T15:21:50.828Z,11.60
2023-10-31T15:24:17.488Z,11.50
2023-10-31T15:26:44.171Z,11.60
2023-10-31T15:29:11.189Z,11.50
2023-10-31T15:31:43.437Z,11.40
2023-10-31T15:34:10.084Z,11.40
2023-10-31T15:36:36.695Z,12.00
2023-10-31T15:39:03.692Z,11.30
2023-10-31T15:41:30.348Z,11.40
2023-10-31T15:43:56.959Z,11.40
2023-10-31T15:46:23.677Z,13.10
2023-10-31T15:48:50.384Z,11.40
2023-10-31T15:51:17.034Z,12.90
2023-10-31T15:53:43.831Z,12.90
2023-10-31T15:56:11.435Z,11.30
2023-10-31T15:58:39.234Z,12.80
2023-10-31T16:01:06.528Z,11.40
2023-10-31T16:03:33.329Z,11.20
2023-10-31T16:06:00.034Z,11.20
2023-10-31T16:08:26.781Z,11.20
2023-10-31T16:10:53.450Z,11.90
2023-10-31T16:13:20.175Z,11.00
2023-10-31T16:15:47.215Z,10.90
2023-10-31T16:18:14.496Z,10.90
2023-10-31T16:20:43.407Z,11.00
2023-10-31T16:23:10.289Z,10.70
2023-10-31T16:25:37.000Z,10.60
2023-10-31T16:28:04.119Z,10.50
2023-10-31T16:30:30.899Z,10.50
2023-10-31T16:32:57.743Z,11.30
2023-10-31T16:35:24.538Z,11.10
2023-10-31T16:37:53.268Z,10.40
2023-10-31T16:40:20.127Z,10.40
2023-10-31T16:42:46.875Z,10.40
2023-10-31T16:45:13.739Z,10.30
2023-10-31T16:47:40.640Z,10.30
2023-10-31T16:50:08.238Z,10.70
2023-10-31T16:52:35.133Z,10.20
2023-10-31T16:55:02.850Z,10.20
2023-10-31T16:57:31.416Z,10.10
2023-10-31T16:59:59.247Z,10.10
2023-10-31T17:02:26.252Z,10.00
2023-10-31T17:04:57.884Z,10.00
2023-10-31T17:07:26.097Z,10.00
2023-10-31T17:09:52.843Z,10.00
2023-10-31T17:12:19.513Z,9.90
2023-10-31T17:14:46.201Z,10.00
2023-10-31T17:17:13.421Z,10.00
2023-10-31T17:19:40.159Z,9.90
2023-10-31T17:22:08.314Z,11.50
2023-10-31T17:24:35.038Z,9.90
2023-10-31T17:27:01.812Z,10.20
2023-10-31T17:29:28.629Z,9.80
2023-10-31T17:31:55.325Z,10.00
2023-10-31T17:34:21.945Z,9.70
2023-10-31T17:36:48.707Z,9.70
2023-10-31T17:39:15.915Z,9.60
2023-10-31T17:41:42.621Z,9.60
2023-10-31T17:44:09.621Z,9.60
2023-10-31T17:46:36.356Z,9.60
2023-10-31T17:49:02.982Z,9.70
2023-10-31T17:51:29.733Z,9.60
2023-10-31T17:53:56.403Z,9.70
2023-10-31T17:56:23.132Z,9.70
2023-10-31T17:58:49.835Z,9.70
2023-10-31T18:01:16.460Z,9.80
2023-10-31T18:03:43.597Z,9.80
2023-10-31T18:06:10.353Z,11.00
2023-10-31T18:08:37.121Z,9.90
2023-10-31T18:11:04.508Z,12.10
2023-10-31T18:13:31.130Z,10.00
2023-10-31T18:15:57.745Z,10.00
2023-10-31T18:18:24.421Z,10.10
2023-10-31T18:20:52.410Z,10.10
2023-10-31T18:23:19.160Z,10.00
2023-10-31T18:25:45.914Z,10.70
2023-10-31T18:28:13.490Z,10.10
2023-10-31T18:30:41.516Z,10.10
2023-10-31T18:33:08.578Z,10.10
2023-10-31T18:35:35.413Z,10.10
2023-10-31T18:38:02.095Z,10.10
2023-10-31T18:40:28.697Z,10.20
2023-10-31T18:42:55.304Z,10.20
2023-10-31T18:45:22.027Z,10.20
2023-10-31T18:47:48.959Z,10.30
2023-10-31T18:50:15.745Z,10.20
2023-10-31T18:52:42.424Z,10.40
2023-10-31T18:55:09.299Z,10.20
2023-10-31T18:57:35.986Z,10.20
2023-10-31T19:00:04.066Z,10.20
2023-10-31T19:02:30.769Z,10.40
2023-10-31T19:04:57.619Z,10.20
2023-10-31T19:07:24.352Z,10.20
2023-10-31T19:09:51.002Z,11.30
2023-10-31T19:12:18.029Z,10.40
2023-10-31T19:14:44.926Z,10.30
2023-10-31T19:17:11.736Z,10.30
2023-10-31T19:19:38.473Z,10.20
2023-10-31T19:22:05.341Z,10.20
2023-10-31T19:24:32.013Z,10.20
2023-10-31T19:26:58.637Z,10.20
2023-10-31T19:29:25.542Z,10.20
2023-10-31T19:31:52.314Z,10.20
2023-10-31T19:34:19.035Z,10.20
2023-10-31T19:36:46.185Z,10.20
2023-10-31T19:39:13.962Z,10.20
2023-10-31T19:41:40.720Z,10.20
2023-10-31T19:44:07.370Z,10.20
2023-10-31T19:46:34.380Z,10.20
2023-10-31T19:49:01.089Z,10.20
2023-10-31T19:51:28.220Z,10.20
2023-10-31T19:53:54.823Z,10.30
2023-10-31T19:56:22.101Z,10.20
2023-10-31T19:58:49.016Z,10.20
2023-10-31T20:01:16.097Z,10.20
2023-10-31T20:03:43.260Z,11.60
2023-10-31T20:06:10.065Z,10.10
2023-10-31T20:08:37.573Z,10.20
2023-10-31T20:11:04.586Z,10.20
2023-10-31T20:13:31.636Z,10.10
2023-10-31T20:15:58.321Z,10.10
2023-10-31T20:18:25.667Z,10.00
2023-10-31T20:20:52.392Z,10.00
2023-10-31T20:23:19.214Z,9.90
2023-10-31T20:25:45.910Z,9.80
2023-10-31T20:28:12.805Z,9.80
2023-10-31T20:30:39.465Z,9.70
2023-10-31T20:33:06.388Z,9.70
2023-10-31T20:35:33.832Z,9.70
2023-10-31T20:38:00.899Z,9.60
2023-10-31T20:40:27.771Z,9.60
2023-10-31T20:42:54.557Z,10.40
2023-10-31T20:45:21.182Z,9.60
2023-10-31T20:47:49.519Z,9.50
2023-10-31T20:50:16.554Z,9.50
2023-10-31T20:52:43.182Z,9.40
2023-10-31T20:55:09.767Z,9.40
2023-10-31T20:57:36.367Z,9.40
2023-10-31T21:00:04.063Z,9.40
2023-10-31T21:02:31.004Z,9.40
2023-10-31T21:04:58.026Z,9.40
2023-10-31T21:07:24.667Z,9.40
2023-10-31T21:09:51.418Z,9.30
2023-10-31T21:12:18.208Z,9.30
2023-10-31T21:14:45.144Z,9.30
2023-10-31T21:17:12.069Z,9.30
2023-10-31T21:19:39.052Z,9.30
2023-10-31T21:22:08.636Z,9.30
2023-10-31T21:24:35.575Z,9.20
2023-10-31T21:27:02.276Z,9.20
2023-10-31T21:29:28.929Z,9.20
2023-10-31T21:31:55.943Z,9.20
2023-10-31T21:34:22.683Z,9.20
2023-10-31T21:36:49.651Z,9.20
2023-10-31T21:39:16.499Z,9.10
2023-10-31T21:41:47.745Z,9.10
2023-10-31T21:44:14.397Z,9.10
2023-10-31T21:46:41.131Z,9.00
2023-10-31T21:49:07.791Z,9.50
2023-10-31T21:51:34.377Z,9.00
2023-10-31T21:54:01.363Z,9.00
2023-10-31T21:56:28.074Z,9.70
2023-10-31T21:58:54.807Z,8.80
2023-10-31T22:01:21.836Z,8.70
2023-10-31T22:03:48.727Z,8.60
2023-10-31T22:06:15.532Z,9.60
2023-10-31T22:08:42.192Z,8.50
2023-10-31T22:11:09.663Z,8.50
2023-10-31T22:13:36.325Z,8.50
2023-10-31T22:16:03.013Z,8.50
2023-10-31T22:18:29.766Z,8.60
2023-10-31T22:20:56.359Z,8.60
2023-10-31T22:23:23.104Z,8.60
2023-10-31T22:25:50.396Z,8.70
2023-10-31T22:28:17.078Z,8.80
2023-10-31T22:30:43.705Z,8.80
2023-10-31T22:33:10.503Z,8.90
2023-10-31T22:35:37.202Z,9.00
2023-10-31T22:38:04.688Z,9.00
2023-10-31T22:40:31.580Z,9.00
2023-10-31T22:42:58.187Z,9.10
2023-10-31T22:45:25.268Z,9.10
2023-10-31T22:47:51.973Z,9.10
2023-10-31T22:50:18.954Z,9.20
2023-10-31T22:52:45.752Z,9.30
2023-10-31T22:55:12.707Z,9.20
2023-10-31T22:57:40.287Z,9.20
2023-10-31T23:00:16.689Z,10.40
2023-10-31T23:02:43.528Z,9.20
2023-10-31T23:05:11.839Z,9.20
2023-10-31T23:07:38.560Z,9.20
2023-10-31T23:10:05.963Z,9.20
2023-10-31T23:12:32.801Z,9.20
2023-10-31T23:14:59.608Z,9.20
2023-10-31T23:17:26.305Z,9.20
2023-10-31T23:19:56.995Z,9.30
2023-10-31T23:22:24.418Z,9.20
2023-10-31T23:24:51.030Z,9.10
2023-10-31T23:27:17.846Z,9.10
2023-10-31T23:29:44.650Z,9.00
2023-10-31T23:32:11.680Z,9.00
2023-10-31T23:34:38.408Z,8.90
2023-10-31T23:37:05.080Z,8.80
2023-10-31T23:39:31.737Z,8.80
2023-10-31T23:41:58.611Z,8.80
2023-10-31T23:44:25.313Z,8.80
2023-10-31T23:46:52.887Z,8.80
2023-10-31T23:49:20.184Z,8.80
2023-10-31T23:51:46.872Z,8.70
2023-10-31T23:54:14.106Z,8.70
2023-10-31T23:56:40.861Z,8.60
2023-10-31T23:59:07.569Z,8.60
